메인 페이지
METAR-TAF:

METAR-TAF

공항 :

Lincoln Airport

링컨, 네브래스카, 미국

위도: 40-49-52N, 경도: 096-45-52W, 고도: 370m

현재 날씨관측

예보는 52분 전, 16:54시(UTC)에 발표되었습니다.
10kt
온도 11°C
습도 50%
기압 1019 hPa
시정: 16.1km
고도 12000ft 상공 구름 조금

METAR: KLNK 051654Z 17010KT 10SM FEW120 11/01 A3010 RMK AO2 SLP199 T01110011 $

시각: 12:46 (17:46 UTC)

예보

예보는 11분 전, 17:35시(UTC)에 발표되었습니다.
예보 대상 시간: 05일 18시부터 06일 18시까지 (UTC)
남남동10kt
시정: 10km
고도 10000ft 상공 구름 보통
06일 0500시부터 (UTC)
남남동10kt
시정: 9.7km
고도 4000ft 상공 구름 많음
약한이슬비
06일 1100시부터 (UTC)
남남동8kt
시정: 9.7km
고도 1000ft 상공 흐림
약한이슬비
06일 1400시부터 (UTC)
8kt
시정: 10km
고도 800ft 상공 흐림

TAF: KLNK 051735Z 0518/0618 16010KT P6SM SCT100 FM060500 16010KT 6SM -DZ BKN040 FM061100 16008KT 6SM -DZ OVC010 FM061400 17008KT P6SM OVC008

4,000개 이상의 공항 관측 자료 및 예보 (METAR 및 TAF 보고).

지도상에서 검색 가능한 기상관측소가 노란 점과 빨간 점으로 표시되어 있습니다.

기상관측소 명을 보려면 표시 위로 마우스를 이동하세요.

날씨 관측과 예보를 보려면 클릭하세요.

지도 변경 : 확대하려면 엑스 표시가 있는 녹색 버튼, 축소하려면 빼기 표시가 있는 녹색 버튼, 다음 페이지의 지도를 보려면 녹색 화살표를 클릭하세요.


METAR-TAF: